Time;durP1;ratioP1;P1;durP2;ratioP2;P2;SDS_P1;SDS_P2;PMS_P1;PMS_P2;Temp;Humidity;BMP_temperature;BMP_pressure;BME280_temperature;BME280_humidity;BME280_pressure;Samples;Min_cycle;Max_cycle;Signal;HPM_P1;HPM_P2
2021/05/29 00:00:57;;;;;;;9.77;6.40;;;11.30;50.30;;;;;;5014380;28;20387;-76
2021/05/29 00:03:24;;;;;;;7.60;6.77;;;11.20;51.30;;;;;;5030862;28;20713;-77
2021/05/29 00:05:51;;;;;;;9.02;6.45;;;11.10;52.20;;;;;;5033480;28;20382;-77
2021/05/29 00:08:17;;;;;;;10.85;6.85;;;11.00;53.00;;;;;;5033465;28;20753;-76
2021/05/29 00:10:46;;;;;;;8.90;6.60;;;10.90;53.80;;;;;;5035570;28;20415;-76
2021/05/29 00:13:13;;;;;;;11.87;6.90;;;10.80;54.60;;;;;;5032241;28;20407;-76
2021/05/29 00:15:40;;;;;;;11.40;7.50;;;10.60;55.40;;;;;;5012992;28;20383;-77
2021/05/29 00:18:07;;;;;;;9.85;7.10;;;10.60;56.30;;;;;;5030663;28;20386;-76
2021/05/29 00:20:34;;;;;;;8.60;6.70;;;10.70;56.90;;;;;;5030750;28;20391;-76
2021/05/29 00:23:00;;;;;;;9.97;6.67;;;10.80;56.00;;;;;;5030730;28;20427;-77
2021/05/29 00:25:26;;;;;;;10.00;6.68;;;10.70;56.30;;;;;;5030740;28;20403;-77
2021/05/29 00:27:51;;;;;;;12.60;7.75;;;10.50;57.40;;;;;;5013150;28;20414;-76
2021/05/29 00:30:18;;;;;;;9.60;7.30;;;10.40;58.50;;;;;;5030762;28;20399;-76
2021/05/29 00:32:43;;;;;;;10.13;8.20;;;10.30;59.60;;;;;;5012915;28;20424;-76
2021/05/29 00:35:09;;;;;;;8.70;6.40;;;10.20;60.70;;;;;;5012713;28;20417;-75
2021/05/29 00:37:36;;;;;;;9.68;6.85;;;10.30;60.80;;;;;;5030773;28;20387;-76
2021/05/29 00:40:04;;;;;;;11.65;7.60;;;10.30;61.00;;;;;;5035521;28;20453;-76
2021/05/29 00:42:30;;;;;;;12.40;7.70;;;10.20;61.40;;;;;;5026346;28;20385;-77
2021/05/29 00:45:00;;;;;;;11.90;7.67;;;10.20;62.10;;;;;;5024746;28;20484;-77
2021/05/29 00:47:27;;;;;;;12.50;8.10;;;10.10;62.70;;;;;;5038369;28;20411;-76
2021/05/29 00:49:55;;;;;;;12.27;7.03;;;10.10;63.10;;;;;;5039947;28;20391;-75
2021/05/29 00:52:22;;;;;;;11.30;8.00;;;10.10;63.90;;;;;;5038840;28;20410;-76
2021/05/29 00:54:48;;;;;;;9.65;6.93;;;10.10;64.80;;;;;;5044215;28;20748;-76
2021/05/29 00:57:14;;;;;;;9.43;7.80;;;10.20;64.30;;;;;;5044053;28;20391;-76
2021/05/29 00:59:40;;;;;;;10.05;7.20;;;10.30;63.50;;;;;;5043725;28;20463;-77
2021/05/29 01:02:07;;;;;;;11.25;7.70;;;10.30;62.80;;;;;;5044293;28;20409;-76
2021/05/29 01:04:33;;;;;;;10.70;6.88;;;10.30;63.30;;;;;;5045651;28;20405;-74
2021/05/29 01:06:59;;;;;;;10.80;8.25;;;10.40;62.20;;;;;;5047224;28;20426;-76
2021/05/29 01:09:25;;;;;;;12.90;8.80;;;10.50;61.30;;;;;;5047395;28;20399;-76
2021/05/29 01:11:51;;;;;;;10.70;7.80;;;10.20;62.50;;;;;;5042332;28;20752;-76
2021/05/29 01:14:18;;;;;;;11.25;7.90;;;10.10;64.40;;;;;;5036669;28;20387;-77
2021/05/29 01:16:58;;;;;;;11.65;7.57;;;10.00;65.70;;;;;;5018801;28;20798;-76
2021/05/29 01:19:24;;;;;;;13.90;7.75;;;9.90;67.00;;;;;;5036229;28;20399;-77
2021/05/29 01:21:50;;;;;;;12.05;7.90;;;9.90;67.70;;;;;;5036670;28;20391;-76
2021/05/29 01:24:20;;;;;;;10.95;7.80;;;9.90;67.70;;;;;;5018651;28;20476;-75
2021/05/29 01:26:47;;;;;;;13.05;8.77;;;9.80;68.30;;;;;;5035391;28;20414;-76
2021/05/29 01:29:14;;;;;;;13.02;9.80;;;9.80;69.10;;;;;;5036270;28;20383;-77
2021/05/29 01:31:42;;;;;;;14.18;9.30;;;9.90;68.60;;;;;;5018524;28;20399;-77
2021/05/29 01:34:11;;;;;;;13.93;9.40;;;9.90;68.50;;;;;;5039044;28;20462;-76
2021/05/29 01:36:39;;;;;;;12.73;9.20;;;9.90;68.80;;;;;;5023253;28;20484;-77
2021/05/29 01:39:06;;;;;;;12.30;8.88;;;9.70;69.60;;;;;;5022421;28;20420;-77
2021/05/29 01:41:32;;;;;;;12.68;9.23;;;9.60;71.40;;;;;;5022492;28;20403;-77
2021/05/29 01:43:58;;;;;;;14.70;10.07;;;9.60;71.50;;;;;;5037804;28;20395;-76
2021/05/29 01:46:24;;;;;;;13.25;8.40;;;9.60;72.10;;;;;;5041890;23;20429;-71
2021/05/29 01:48:50;;;;;;;16.20;9.30;;;9.50;72.10;;;;;;5013471;28;20385;-72
2021/05/29 01:51:19;;;;;;;13.13;9.05;;;9.50;72.80;;;;;;5013061;28;20392;-72
2021/05/29 01:53:45;;;;;;;15.38;8.98;;;9.40;72.80;;;;;;5012622;28;20400;-71
2021/05/29 01:56:11;;;;;;;12.03;9.23;;;9.40;73.40;;;;;;5023791;28;20699;-71
2021/05/29 01:58:39;;;;;;;10.85;8.23;;;9.30;74.00;;;;;;5052831;28;20381;-69
2021/05/29 02:01:06;;;;;;;12.50;8.60;;;9.30;74.60;;;;;;5052686;28;20727;-70
2021/05/29 02:03:32;;;;;;;13.73;7.78;;;9.30;75.10;;;;;;5051895;28;20377;-70
2021/05/29 02:05:58;;;;;;;13.88;8.40;;;9.50;75.60;;;;;;5051708;28;20439;-70
2021/05/29 02:08:24;;;;;;;9.83;8.20;;;9.90;71.50;;;;;;5039012;28;20809;-70
2021/05/29 02:10:50;;;;;;;11.40;8.83;;;9.70;70.30;;;;;;5032625;28;20383;-69
2021/05/29 02:13:26;;;;;;;13.88;8.45;;;9.60;70.50;;;;;;5032038;28;20411;-70
2021/05/29 02:15:53;;;;;;;12.93;8.38;;;9.40;72.20;;;;;;5032336;28;20379;-71
2021/05/29 02:18:19;;;;;;;16.85;8.57;;;9.40;73.30;;;;;;5032251;28;20756;-69
2021/05/29 02:21:02;;;;;;;14.10;8.60;;;9.60;73.40;;;;;;5031846;28;20470;-70
2021/05/29 02:23:33;;;;;;;16.08;8.80;;;9.60;72.00;;;;;;5031743;28;20387;-71
2021/05/29 02:26:08;;;;;;;13.40;8.40;;;9.70;72.60;;;;;;5031998;28;20387;-71
2021/05/29 02:28:35;;;;;;;10.48;8.80;;;10.10;69.90;;;;;;5031904;28;20379;-71
2021/05/29 02:31:01;;;;;;;10.85;8.00;;;10.40;65.80;;;;;;5032087;28;20423;-70
2021/05/29 02:33:28;;;;;;;14.00;8.10;;;10.30;65.10;;;;;;5031588;28;20446;-70
2021/05/29 02:35:54;;;;;;;11.60;7.82;;;10.10;66.30;;;;;;5032058;28;20410;-70
2021/05/29 02:38:19;;;;;;;12.27;7.93;;;9.80;68.10;;;;;;5032244;28;20437;-70
2021/05/29 02:40:46;;;;;;;11.70;7.27;;;9.90;68.00;;;;;;5031667;28;20379;-70
2021/05/29 02:43:11;;;;;;;14.85;8.35;;;9.90;67.70;;;;;;5031522;28;20379;-72
2021/05/29 02:45:39;;;;;;;14.88;7.90;;;9.70;67.30;;;;;;5031512;28;20441;-71
2021/05/29 02:48:09;;;;;;;10.30;7.65;;;9.40;69.80;;;;;;5031247;28;20406;-71
2021/05/29 02:50:35;;;;;;;9.77;7.85;;;9.20;72.70;;;;;;5030859;28;20399;-71
2021/05/29 02:53:01;;;;;;;9.75;7.90;;;9.20;73.50;;;;;;5031250;28;20459;-71
2021/05/29 02:55:27;;;;;;;10.75;8.45;;;9.10;74.00;;;;;;5030992;28;20456;-70
2021/05/29 02:57:55;;;;;;;10.57;8.20;;;9.00;75.20;;;;;;5035374;28;20872;-70
2021/05/29 03:00:24;;;;;;;13.13;8.32;;;8.90;76.20;;;;;;5031264;28;20390;-71
2021/05/29 03:02:50;;;;;;;10.60;8.25;;;9.30;76.00;;;;;;5030725;28;20410;-71
2021/05/29 03:05:16;;;;;;;13.05;9.27;;;9.20;74.50;;;;;;5033400;28;20848;-70
2021/05/29 03:07:41;;;;;;;14.03;9.20;;;9.30;73.60;;;;;;5038462;28;20484;-71
2021/05/29 03:10:07;;;;;;;12.87;9.27;;;9.20;74.30;;;;;;5037402;28;20464;-71
2021/05/29 03:12:38;;;;;;;10.57;8.93;;;9.10;74.40;;;;;;5031698;28;20741;-72
2021/05/29 03:15:06;;;;;;;11.90;9.05;;;9.20;75.00;;;;;;5031443;28;20779;-71
2021/05/29 03:17:32;;;;;;;12.82;8.98;;;9.30;75.10;;;;;;5030379;28;20399;-72
2021/05/29 03:19:57;;;;;;;10.88;8.60;;;9.30;74.20;;;;;;5031130;28;20726;-72
2021/05/29 03:22:23;;;;;;;11.60;8.70;;;9.20;73.90;;;;;;5030936;28;20458;-71
2021/05/29 03:24:48;;;;;;;12.57;9.27;;;9.30;73.10;;;;;;5030950;28;20390;-72
2021/05/29 03:27:17;;;;;;;10.90;9.00;;;9.50;71.70;;;;;;5030690;28;20391;-70
2021/05/29 03:29:43;;;;;;;13.43;8.65;;;9.60;69.10;;;;;;5030840;28;20738;-70
2021/05/29 03:32:09;;;;;;;11.48;8.90;;;9.60;68.10;;;;;;5030664;28;20442;-70
2021/05/29 03:34:35;;;;;;;10.98;8.85;;;9.60;69.30;;;;;;5030445;28;20415;-71
2021/05/29 03:37:00;;;;;;;14.40;9.45;;;9.40;70.20;;;;;;5031161;28;20379;-71
2021/05/29 03:39:26;;;;;;;12.90;9.48;;;9.10;72.60;;;;;;5013250;28;20391;-71
2021/05/29 03:41:52;;;;;;;19.15;9.43;;;9.00;75.30;;;;;;5030760;28;20886;-71
2021/05/29 03:44:17;;;;;;;16.60;10.07;;;9.20;75.70;;;;;;5030379;28;20875;-72
2021/05/29 03:46:43;;;;;;;13.43;9.10;;;9.50;72.00;;;;;;5030412;28;20871;-70
2021/05/29 03:49:08;;;;;;;15.32;10.07;;;9.30;72.20;;;;;;5013202;28;20445;-69
2021/05/29 03:51:34;;;;;;;12.90;9.68;;;9.30;72.70;;;;;;5030378;28;20498;-69
2021/05/29 03:53:59;;;;;;;9.83;8.43;;;9.40;72.00;;;;;;5030300;28;20430;-69
2021/05/29 03:56:25;;;;;;;12.17;9.17;;;9.30;73.10;;;;;;5038360;28;20381;-69
2021/05/29 03:58:51;;;;;;;9.90;8.90;;;9.30;73.70;;;;;;5034536;28;20387;-69
2021/05/29 04:01:16;;;;;;;19.75;9.63;;;9.30;72.40;;;;;;5030652;28;20689;-68
2021/05/29 04:03:42;;;;;;;15.87;9.13;;;9.50;72.30;;;;;;5030120;28;20406;-68
2021/05/29 04:06:07;;;;;;;14.30;9.00;;;9.60;71.30;;;;;;5030365;28;20414;-68
2021/05/29 04:08:33;;;;;;;12.67;9.07;;;9.80;68.80;;;;;;5029982;28;20397;-68
2021/05/29 04:10:58;;;;;;;13.37;8.80;;;10.00;66.70;;;;;;5030054;28;20383;-68
2021/05/29 04:13:24;;;;;;;13.83;9.50;;;9.90;66.60;;;;;;5030128;28;20437;-69
2021/05/29 04:15:49;;;;;;;16.15;8.82;;;10.00;64.80;;;;;;5030500;28;20407;-68
2021/05/29 04:18:15;;;;;;;11.60;8.63;;;9.90;66.30;;;;;;5031086;28;20927;-68
2021/05/29 04:20:40;;;;;;;12.32;9.00;;;10.00;64.70;;;;;;5031036;28;20752;-69
2021/05/29 04:23:06;;;;;;;17.77;9.90;;;9.80;66.00;;;;;;5030767;28;20383;-68
2021/05/29 04:25:32;;;;;;;11.70;8.77;;;9.70;68.30;;;;;;5030576;28;20403;-69
2021/05/29 04:27:58;;;;;;;11.82;8.77;;;9.80;69.00;;;;;;5032411;28;20386;-69
2021/05/29 04:30:26;;;;;;;11.50;7.93;;;10.00;67.00;;;;;;5035700;28;20752;-69
2021/05/29 04:32:52;;;;;;;10.13;8.15;;;10.30;63.20;;;;;;5035197;28;20755;-69
2021/05/29 04:35:18;;;;;;;12.68;8.70;;;10.40;61.20;;;;;;5016649;28;20391;-68
2021/05/29 04:37:45;;;;;;;11.10;8.52;;;10.50;60.50;;;;;;5033947;28;20413;-68
2021/05/29 04:40:12;;;;;;;14.25;8.65;;;10.50;60.80;;;;;;5033894;28;20507;-68
2021/05/29 04:42:38;;;;;;;11.27;8.63;;;10.50;60.40;;;;;;5033472;28;20432;-67
2021/05/29 04:45:07;;;;;;;15.30;8.77;;;10.60;59.70;;;;;;5034091;28;20468;-67
2021/05/29 04:47:33;;;;;;;12.90;8.20;;;10.60;59.30;;;;;;5033402;28;20403;-69
2021/05/29 04:49:58;;;;;;;11.20;8.35;;;10.60;58.80;;;;;;5033954;28;20533;-70
2021/05/29 04:52:24;;;;;;;12.60;8.10;;;10.70;58.40;;;;;;5033201;28;20406;-69
2021/05/29 04:54:50;;;;;;;11.48;8.30;;;10.70;58.50;;;;;;5033664;28;20391;-70
2021/05/29 04:57:17;;;;;;;12.52;7.93;;;10.70;58.20;;;;;;5048551;28;20889;-69
2021/05/29 04:59:42;;;;;;;12.15;8.80;;;10.80;57.60;;;;;;5035532;28;20477;-68
2021/05/29 05:02:08;;;;;;;12.57;8.13;;;10.80;58.10;;;;;;5053592;28;20778;-69
2021/05/29 05:04:33;;;;;;;12.65;7.65;;;10.90;57.50;;;;;;5053066;28;20476;-69
2021/05/29 05:06:59;;;;;;;11.13;8.23;;;11.00;57.10;;;;;;5042908;28;20409;-69
2021/05/29 05:09:25;;;;;;;16.52;8.32;;;11.00;56.80;;;;;;5033145;28;20398;-68
2021/05/29 05:11:50;;;;;;;11.05;8.00;;;11.10;56.80;;;;;;5033474;28;20756;-68
2021/05/29 05:14:16;;;;;;;12.77;7.77;;;11.10;56.40;;;;;;5032861;28;20395;-69
2021/05/29 05:16:41;;;;;;;12.07;7.70;;;11.20;55.40;;;;;;5033752;28;20371;-68
2021/05/29 05:19:07;;;;;;;12.13;7.70;;;11.30;55.20;;;;;;5033439;28;20410;-68
2021/05/29 05:21:32;;;;;;;14.40;8.40;;;11.40;55.30;;;;;;5015405;28;20449;-68
2021/05/29 05:23:58;;;;;;;11.73;7.80;;;11.60;54.10;;;;;;5033331;28;20391;-68
2021/05/29 05:26:25;;;;;;;12.20;8.37;;;11.70;53.40;;;;;;5015232;28;20899;-68
2021/05/29 05:28:51;;;;;;;12.65;8.60;;;11.80;53.00;;;;;;5015883;28;20817;-68
2021/05/29 05:31:16;;;;;;;11.30;8.60;;;11.90;53.00;;;;;;5033418;28;20466;-68
2021/05/29 05:33:44;;;;;;;13.20;8.63;;;12.00;52.90;;;;;;5032960;28;20460;-71
2021/05/29 05:36:11;;;;;;;11.95;8.60;;;12.10;52.70;;;;;;5033102;28;20445;-68
2021/05/29 05:38:38;;;;;;;12.25;8.68;;;12.20;52.10;;;;;;5033050;28;20478;-69
2021/05/29 05:41:05;;;;;;;12.90;8.93;;;12.30;52.30;;;;;;5044899;28;20480;-69
2021/05/29 05:43:31;;;;;;;12.85;9.20;;;12.40;53.00;;;;;;5033685;28;20456;-68
2021/05/29 05:45:57;;;;;;;14.30;9.60;;;12.60;52.10;;;;;;5033049;28;20436;-68
2021/05/29 05:48:22;;;;;;;14.40;9.70;;;12.70;51.70;;;;;;5033039;28;20489;-68
2021/05/29 05:50:53;;;;;;;13.15;9.73;;;12.70;51.40;;;;;;5033273;28;20391;-68
2021/05/29 05:53:21;;;;;;;12.35;9.93;;;12.80;51.60;;;;;;5032941;28;20855;-67
2021/05/29 05:55:46;;;;;;;13.57;10.30;;;12.80;51.90;;;;;;5035397;28;20611;-69
2021/05/29 05:58:12;;;;;;;14.43;9.98;;;12.80;52.00;;;;;;5052637;28;20951;-69
2021/05/29 06:00:38;;;;;;;15.02;10.80;;;12.90;52.10;;;;;;5052458;28;20464;-69
2021/05/29 06:03:03;;;;;;;16.67;10.80;;;13.00;51.80;;;;;;5052578;28;20460;-69
2021/05/29 06:05:29;;;;;;;15.00;10.45;;;13.10;52.50;;;;;;5052538;28;20405;-69
2021/05/29 06:07:54;;;;;;;14.05;10.20;;;13.30;51.00;;;;;;5042933;28;20405;-69
2021/05/29 06:10:20;;;;;;;15.00;9.70;;;13.40;49.80;;;;;;5032462;28;20477;-70
2021/05/29 06:12:49;;;;;;;12.63;9.73;;;13.50;49.40;;;;;;5032477;28;20407;-69
2021/05/29 06:20:48;;;;;;;11.40;8.50;;;13.80;48.10;;;;;;5032148;28;20488;-69
2021/05/29 06:23:14;;;;;;;11.07;8.70;;;13.90;46.50;;;;;;5031969;28;20476;-68
2021/05/29 06:25:41;;;;;;;11.20;8.70;;;14.00;45.80;;;;;;5031913;28;20445;-69
2021/05/29 06:28:07;;;;;;;10.80;8.70;;;14.10;46.50;;;;;;5031952;28;20395;-69
2021/05/29 06:30:33;;;;;;;12.20;7.97;;;14.20;45.90;;;;;;5031909;28;20398;-69
2021/05/29 06:32:59;;;;;;;8.85;7.30;;;14.30;45.00;;;;;;5031715;28;20799;-69
2021/05/29 06:35:24;;;;;;;12.13;7.80;;;14.40;42.00;;;;;;5031565;28;20449;-69
2021/05/29 06:37:50;;;;;;;9.35;7.28;;;14.30;40.50;;;;;;5031991;28;20391;-70
2021/05/29 06:40:16;;;;;;;8.73;6.70;;;14.30;41.90;;;;;;5031192;28;20387;-69
2021/05/29 06:42:41;;;;;;;8.93;6.70;;;14.40;41.30;;;;;;5032721;28;20480;-68
2021/05/29 06:45:07;;;;;;;9.40;6.00;;;14.50;40.80;;;;;;5032785;28;20413;-69
2021/05/29 06:47:35;;;;;;;8.85;5.93;;;14.60;40.00;;;;;;5034677;28;20478;-69
2021/05/29 06:50:01;;;;;;;9.35;6.30;;;14.80;38.90;;;;;;5032226;28;20403;-70
2021/05/29 06:52:29;;;;;;;8.07;4.85;;;14.90;37.80;;;;;;5032855;28;20407;-69
2021/05/29 07:00:19;;;;;;;11.38;4.88;;;15.10;34.80;;;;;;5009072;28;20527;-69
2021/05/29 07:02:45;;;;;;;6.90;5.43;;;15.10;35.50;;;;;;5050215;28;20393;-69
2021/05/29 07:05:11;;;;;;;7.77;4.50;;;15.10;36.00;;;;;;5035362;28;20391;-68
2021/05/29 07:07:39;;;;;;;5.75;4.30;;;15.30;33.80;;;;;;5035687;28;20387;-68
2021/05/29 07:10:06;;;;;;;8.05;4.95;;;15.10;33.80;;;;;;5034333;28;20918;-68
2021/05/29 07:12:31;;;;;;;6.47;5.00;;;15.20;34.40;;;;;;5034715;28;20407;-68
2021/05/29 07:14:57;;;;;;;5.60;4.80;;;15.20;34.40;;;;;;5033617;28;20454;-69
2021/05/29 07:17:29;;;;;;;8.05;4.80;;;15.40;34.00;;;;;;5034369;28;20387;-69
2021/05/29 07:19:55;;;;;;;7.95;4.55;;;15.50;33.70;;;;;;5034800;28;20418;-69
2021/05/29 07:22:20;;;;;;;6.50;4.45;;;15.60;33.30;;;;;;5033849;28;20390;-69
2021/05/29 07:24:46;;;;;;;7.93;5.13;;;15.70;32.70;;;;;;5033158;28;20717;-69
2021/05/29 07:27:11;;;;;;;8.20;5.20;;;15.70;32.50;;;;;;5032885;28;20398;-69
2021/05/29 07:29:37;;;;;;;8.33;4.70;;;15.80;31.50;;;;;;5032886;28;20394;-69
2021/05/29 07:32:03;;;;;;;6.23;4.73;;;15.80;32.10;;;;;;5032268;28;20645;-70
2021/05/29 07:34:28;;;;;;;19.73;11.27;;;15.80;31.80;;;;;;5031851;28;20383;-70
2021/05/29 07:36:54;;;;;;;14.53;9.70;;;15.80;32.40;;;;;;5033106;28;20383;-70
2021/05/29 07:39:19;;;;;;;6.95;4.78;;;15.90;32.50;;;;;;5033178;28;20922;-70
2021/05/29 07:41:45;;;;;;;7.60;5.38;;;16.00;32.10;;;;;;5031896;28;20418;-70
2021/05/29 07:44:11;;;;;;;22.33;13.70;;;16.00;31.50;;;;;;5032301;28;20374;-71
2021/05/29 07:46:36;;;;;;;6.20;4.30;;;16.10;31.50;;;;;;5031776;28;20464;-70
2021/05/29 07:49:04;;;;;;;6.38;4.50;;;16.00;30.90;;;;;;5031683;28;20379;-71
2021/05/29 07:51:34;;;;;;;9.53;4.57;;;16.00;31.90;;;;;;5030774;28;20449;-70
2021/05/29 07:54:00;;;;;;;7.82;5.00;;;16.00;31.10;;;;;;5030425;28;20390;-70
2021/05/29 07:56:25;;;;;;;15.60;9.70;;;16.00;31.10;;;;;;5038513;28;20377;-70
2021/05/29 07:58:51;;;;;;;9.07;5.28;;;16.10;30.40;;;;;;5050731;28;20864;-70
2021/05/29 08:01:17;;;;;;;7.63;5.53;;;16.10;31.20;;;;;;5034116;28;20418;-70
2021/05/29 08:03:43;;;;;;;6.72;5.32;;;16.30;30.90;;;;;;5029505;28;20521;-70
2021/05/29 08:06:17;;;;;;;15.53;7.03;;;16.40;30.80;;;;;;5030595;28;20383;-71
2021/05/29 08:08:44;;;;;;;8.02;5.68;;;16.60;30.50;;;;;;5030317;28;20494;-70
2021/05/29 08:11:17;;;;;;;12.75;5.63;;;16.60;27.70;;;;;;5030937;28;20449;-69
2021/05/29 08:13:43;;;;;;;8.48;5.28;;;16.40;27.80;;;;;;5029928;28;20421;-69
2021/05/29 08:16:09;;;;;;;8.47;5.27;;;16.60;28.10;;;;;;5033674;28;20399;-69
2021/05/29 08:18:34;;;;;;;5.60;4.77;;;16.70;27.40;;;;;;5029612;28;20395;-69
2021/05/29 08:21:00;;;;;;;7.70;5.50;;;16.90;27.70;;;;;;5030250;28;20466;-70
2021/05/29 08:23:26;;;;;;;16.20;10.73;;;17.00;26.60;;;;;;5029983;28;20406;-69
2021/05/29 08:25:51;;;;;;;4.95;4.15;;;17.10;27.20;;;;;;5030196;28;20391;-70
2021/05/29 08:28:17;;;;;;;5.17;3.43;;;17.10;24.40;;;;;;5029760;28;20906;-68
2021/05/29 08:30:43;;;;;;;5.20;4.10;;;16.70;22.40;;;;;;5030077;28;20477;-70
2021/05/29 08:33:08;;;;;;;4.50;3.00;;;16.70;23.50;;;;;;5030012;28;20449;-70
2021/05/29 08:35:35;;;;;;;7.07;4.20;;;16.60;22.60;;;;;;5029503;28;20406;-70
2021/05/29 08:38:01;;;;;;;5.60;4.00;;;16.70;23.50;;;;;;5029524;28;20799;-69
2021/05/29 08:40:27;;;;;;;5.45;3.00;;;16.60;23.90;;;;;;5012664;28;20449;-69
2021/05/29 08:42:52;;;;;;;6.33;2.90;;;16.70;21.80;;;;;;5030242;28;20407;-69
2021/05/29 08:45:20;;;;;;;4.78;2.95;;;16.60;20.90;;;;;;5050363;28;20453;-69
2021/05/29 08:47:46;;;;;;;4.50;3.10;;;16.60;20.50;;;;;;5040572;28;20407;-70
2021/05/29 08:50:12;;;;;;;5.20;3.30;;;16.70;20.70;;;;;;5030154;28;20470;-71
2021/05/29 08:52:39;;;;;;;5.40;4.15;;;16.90;20.20;;;;;;5029296;28;20464;-68
2021/05/29 08:55:08;;;;;;;6.35;4.20;;;17.10;21.10;;;;;;5030239;28;20387;-72
2021/05/29 08:57:33;;;;;;;8.40;4.70;;;17.40;21.90;;;;;;5033781;28;20453;-70
2021/05/29 09:00:00;;;;;;;7.80;5.97;;;17.50;22.70;;;;;;5023645;28;20521;-71
2021/05/29 09:02:27;;;;;;;6.50;4.38;;;17.80;22.40;;;;;;5011578;28;20407;-68
2021/05/29 09:05:09;;;;;;;5.30;3.80;;;17.80;21.50;;;;;;5029584;28;20422;-69
2021/05/29 09:07:35;;;;;;;7.50;6.13;;;17.80;20.10;;;;;;5029032;28;20426;-69
2021/05/29 09:10:17;;;;;;;14.35;9.65;;;17.90;21.40;;;;;;5029953;28;20422;-68
2021/05/29 09:13:03;;;;;;;8.20;5.05;;;18.30;20.80;;;;;;5012059;28;20895;-69
2021/05/29 09:15:46;;;;;;;7.13;5.30;;;18.50;19.50;;;;;;5033254;28;20398;-69
2021/05/29 09:18:36;;;;;;;9.25;5.10;;;18.50;20.00;;;;;;5033574;28;20410;-69
2021/05/29 09:21:28;;;;;;;8.43;5.25;;;18.70;20.10;;;;;;5033449;28;20418;-69
2021/05/29 09:24:01;;;;;;;7.95;5.55;;;18.90;19.40;;;;;;5015383;28;20434;-69
2021/05/29 09:26:50;;;;;;;5.93;5.00;;;19.00;19.40;;;;;;5033066;28;20851;-69
2021/05/29 09:29:19;;;;;;;7.13;6.13;;;18.80;19.50;;;;;;5013525;28;20388;-69
2021/05/29 09:31:53;;;;;;;9.07;6.03;;;18.10;20.70;;;;;;5013077;28;20460;-70
2021/05/29 09:34:44;;;;;;;7.57;5.80;;;17.80;22.20;;;;;;5024159;28;20387;-70
2021/05/29 09:37:24;;;;;;;7.70;5.88;;;17.70;22.40;;;;;;5013300;28;20805;-70
2021/05/29 09:39:57;;;;;;;6.15;5.50;;;17.70;22.10;;;;;;5028789;28;20907;-70
2021/05/29 09:42:33;;;;;;;7.50;5.30;;;17.90;21.70;;;;;;5033113;28;20414;-69
2021/05/29 09:45:27;;;;;;;6.95;5.70;;;18.20;21.20;;;;;;5032856;28;20981;-68
2021/05/29 09:48:16;;;;;;;8.85;5.60;;;18.50;21.00;;;;;;5032354;28;20492;-70
2021/05/29 09:51:00;;;;;;;6.13;5.45;;;19.00;19.30;;;;;;5027779;28;20498;-68
2021/05/29 09:53:27;;;;;;;8.73;6.20;;;19.30;18.20;;;;;;5031976;28;20763;-69
2021/05/29 09:55:54;;;;;;;6.45;5.65;;;19.10;18.90;;;;;;5034489;28;20386;-68
2021/05/29 09:58:20;;;;;;;7.63;6.80;;;19.00;19.80;;;;;;5034542;28;20394;-69
2021/05/29 10:00:47;;;;;;;8.10;6.93;;;19.20;19.40;;;;;;5032963;28;20407;-70
2021/05/29 10:03:13;;;;;;;10.55;7.70;;;19.00;19.90;;;;;;5040117;28;20473;-69
2021/05/29 10:05:47;;;;;;;9.32;7.63;;;18.90;20.00;;;;;;5031414;28;20505;-69
2021/05/29 10:08:14;;;;;;;11.52;7.47;;;18.50;20.20;;;;;;5030869;28;20891;-69
2021/05/29 10:10:40;;;;;;;9.77;7.78;;;18.20;22.10;;;;;;5016075;28;20890;-69
2021/05/29 10:13:06;;;;;;;9.40;7.93;;;18.20;21.60;;;;;;5033225;28;20482;-70
2021/05/29 10:15:32;;;;;;;9.52;8.40;;;18.30;20.60;;;;;;5014108;28;20863;-69
2021/05/29 10:18:00;;;;;;;12.82;9.25;;;18.40;20.90;;;;;;5032252;28;20771;-69
2021/05/29 10:20:26;;;;;;;10.82;8.43;;;18.60;19.80;;;;;;5032186;28;20383;-68
2021/05/29 10:22:52;;;;;;;12.68;8.10;;;19.10;19.80;;;;;;5031476;28;20791;-68
2021/05/29 10:25:20;;;;;;;13.03;8.57;;;19.30;18.60;;;;;;5031276;28;20466;-69
2021/05/29 10:27:52;;;;;;;9.60;7.80;;;19.40;18.30;;;;;;5031882;28;20421;-71
2021/05/29 10:30:20;;;;;;;10.13;7.97;;;19.60;17.70;;;;;;5032363;28;20487;-70
2021/05/29 10:33:11;;;;;;;11.30;8.30;;;19.70;18.00;;;;;;5031015;28;20403;-71
2021/05/29 10:35:42;;;;;;;8.85;7.65;;;19.50;17.90;;;;;;5032262;28;20466;-71
2021/05/29 10:38:08;;;;;;;8.40;7.60;;;19.60;17.60;;;;;;5032337;28;20475;-70
2021/05/29 10:40:36;;;;;;;8.70;7.30;;;19.70;17.20;;;;;;5032236;28;20461;-70
2021/05/29 10:43:09;;;;;;;8.30;7.50;;;19.70;17.50;;;;;;5031485;28;20425;-69
2021/05/29 10:45:37;;;;;;;12.85;7.90;;;19.40;17.00;;;;;;5031813;28;20453;-69
2021/05/29 10:48:06;;;;;;;9.88;7.82;;;19.40;17.70;;;;;;5031216;28;20481;-69
2021/05/29 10:51:12;;;;;;;9.43;7.90;;;19.80;17.00;;;;;;5031580;28;20856;-68
2021/05/29 10:53:56;;;;;;;11.10;8.03;;;19.50;16.60;;;;;;5002849;28;20435;-69
2021/05/29 10:56:22;;;;;;;11.95;8.73;;;19.20;17.80;;;;;;5023021;28;20433;-69
2021/05/29 10:59:10;;;;;;;11.90;8.75;;;19.10;17.70;;;;;;5031504;28;20466;-68
2021/05/29 11:01:37;;;;;;;10.73;9.57;;;19.00;18.50;;;;;;5031920;28;20895;-69
2021/05/29 11:04:12;;;;;;;11.65;9.10;;;19.20;18.40;;;;;;5030779;28;20397;-69
2021/05/29 11:06:39;;;;;;;13.52;10.68;;;19.30;18.50;;;;;;5023360;28;20430;-68
2021/05/29 11:09:06;;;;;;;16.30;11.50;;;19.10;18.60;;;;;;5032636;28;20465;-68
2021/05/29 11:14:19;;;;;;;12.23;10.40;;;19.00;18.90;;;;;;5030917;28;20397;-69
2021/05/29 11:16:51;;;;;;;14.18;10.07;;;19.50;18.00;;;;;;5036670;28;20397;-69
2021/05/29 11:19:25;;;;;;;15.05;11.07;;;19.70;17.80;;;;;;5038528;28;20395;-68
2021/05/29 11:22:10;;;;;;;14.35;11.20;;;20.10;17.00;;;;;;5034646;28;20888;-69
2021/05/29 11:24:48;;;;;;;12.30;10.95;;;20.60;16.70;;;;;;5032163;28;20437;-69
2021/05/29 11:27:21;;;;;;;12.30;9.77;;;20.70;15.70;;;;;;5031010;28;20394;-69
2021/05/29 11:29:51;;;;;;;14.27;10.85;;;20.80;16.50;;;;;;5030537;28;20410;-69
2021/05/29 11:35:47;;;;;;;16.83;10.57;;;19.90;17.30;;;;;;4952382;28;20540;-72
2021/05/29 11:38:20;;;;;;;14.30;9.98;;;19.60;18.00;;;;;;4950021;28;20437;-70
2021/05/29 11:41:11;;;;;;;13.75;9.57;;;19.30;18.40;;;;;;5004344;28;20506;-70
2021/05/29 11:43:44;;;;;;;12.45;9.15;;;19.40;17.80;;;;;;5011012;28;20396;-70
2021/05/29 11:46:12;;;;;;;10.98;8.98;;;19.10;18.60;;;;;;5010986;28;20393;-70
2021/05/29 11:48:39;;;;;;;10.90;8.20;;;19.40;17.70;;;;;;5012732;28;20468;-69
2021/05/29 11:51:09;;;;;;;10.77;8.53;;;19.90;17.00;;;;;;5013002;28;20463;-69
2021/05/29 11:53:36;;;;;;;13.43;8.50;;;20.40;16.80;;;;;;5029845;28;20407;-70
2021/05/29 11:56:05;;;;;;;8.68;7.30;;;20.30;16.30;;;;;;5035928;28;20446;-69
2021/05/29 11:58:50;;;;;;;11.18;7.57;;;20.20;16.70;;;;;;5050771;28;20381;-70
2021/05/29 12:01:18;;;;;;;9.18;7.18;;;19.90;16.70;;;;;;5050216;28;20369;-69
2021/05/29 12:03:47;;;;;;;11.98;7.78;;;19.40;16.70;;;;;;5019223;28;20911;-70
2021/05/29 12:06:32;;;;;;;9.93;7.38;;;19.10;18.00;;;;;;5030578;28;20390;-69
2021/05/29 12:08:58;;;;;;;7.68;6.30;;;19.10;17.40;;;;;;5029964;28;20482;-69
2021/05/29 12:11:29;;;;;;;7.78;6.10;;;19.30;16.40;;;;;;5029974;28;20446;-69
2021/05/29 12:13:56;;;;;;;7.65;6.10;;;19.60;16.60;;;;;;5030054;28;20379;-70
2021/05/29 12:16:27;;;;;;;10.25;6.50;;;20.20;16.00;;;;;;5031038;28;20421;-70
2021/05/29 12:18:53;;;;;;;9.20;6.70;;;20.90;14.90;;;;;;5030762;28;20840;-70
2021/05/29 12:21:19;;;;;;;11.50;7.37;;;21.10;14.00;;;;;;5030031;28;20450;-69
2021/05/29 12:23:59;;;;;;;9.45;8.02;;;20.80;15.10;;;;;;5030001;28;20883;-69
2021/05/29 12:26:26;;;;;;;8.50;7.30;;;20.70;15.40;;;;;;5029778;28;20379;-69
2021/05/29 12:28:53;;;;;;;8.15;7.10;;;21.10;15.20;;;;;;5030573;28;20410;-68
2021/05/29 12:31:22;;;;;;;8.98;7.40;;;21.40;15.40;;;;;;5030844;28;20387;-69
2021/05/29 12:34:03;;;;;;;10.95;7.55;;;21.20;15.50;;;;;;5030294;28;20403;-69
2021/05/29 12:36:29;;;;;;;9.00;7.22;;;20.70;15.40;;;;;;5030520;28;20771;-69
2021/05/29 12:39:00;;;;;;;12.70;6.90;;;19.80;17.00;;;;;;5030337;28;20518;-69
2021/05/29 12:41:37;;;;;;;8.48;7.00;;;19.80;17.90;;;;;;5029946;28;20533;-70
2021/05/29 12:44:04;;;;;;;9.35;6.45;;;20.20;17.70;;;;;;5029969;28;20752;-70
2021/05/29 12:46:30;;;;;;;8.40;6.32;;;20.40;16.40;;;;;;5029381;28;20399;-70
2021/05/29 12:49:08;;;;;;;8.02;6.10;;;20.30;16.10;;;;;;5013484;28;20426;-69
2021/05/29 12:51:51;;;;;;;9.32;6.90;;;19.80;15.80;;;;;;5033310;28;20445;-69
2021/05/29 12:54:18;;;;;;;9.73;6.40;;;19.80;16.20;;;;;;5033877;28;20809;-69
2021/05/29 12:56:57;;;;;;;11.38;6.25;;;19.90;16.40;;;;;;5026673;28;20397;-70
2021/05/29 12:59:28;;;;;;;7.03;5.65;;;20.00;15.20;;;;;;5053517;28;20381;-69
2021/05/29 13:07:31;;;;;;;9.40;7.15;;;20.00;15.90;;;;;;5038569;28;20752;-70
2021/05/29 13:10:07;;;;;;;7.60;6.78;;;20.40;15.50;;;;;;5033369;28;20393;-70
2021/05/29 13:12:33;;;;;;;8.88;6.60;;;20.40;15.90;;;;;;5033108;28;20903;-70